Time;durP1;ratioP1;P1;durP2;ratioP2;P2;SDS_P1;SDS_P2;PMS_P1;PMS_P2;Temp;Humidity;BMP_temperature;BMP_pressure;BME280_temperature;BME280_humidity;BME280_pressure;Samples;Min_cycle;Max_cycle;Signal;HPM_P1;HPM_P2
2022/06/12 00:00:56;;;;;;;2.00;1.60;;;17.40;61.80;;;;;;5007695;28;20519;-74
2022/06/12 00:03:22;;;;;;;3.65;1.45;;;17.30;62.00;;;;;;5005265;28;20041;-75
2022/06/12 00:05:49;;;;;;;4.47;1.60;;;17.30;62.00;;;;;;5001777;28;20037;-76
2022/06/12 00:08:15;;;;;;;2.55;1.40;;;17.30;62.30;;;;;;5014285;28;20038;-75
2022/06/12 00:10:45;;;;;;;3.28;1.70;;;17.20;62.30;;;;;;5016068;28;20117;-75
2022/06/12 00:13:12;;;;;;;3.97;1.80;;;17.20;62.50;;;;;;5005407;28;20715;-76
2022/06/12 00:15:37;;;;;;;2.88;1.80;;;17.10;62.50;;;;;;4997782;28;20592;-75
2022/06/12 00:18:03;;;;;;;2.20;1.30;;;17.10;62.60;;;;;;5014612;28;20056;-76
2022/06/12 00:20:29;;;;;;;2.13;1.40;;;17.10;62.80;;;;;;5003989;28;20148;-75
2022/06/12 00:22:54;;;;;;;2.22;1.60;;;17.00;62.90;;;;;;5021201;28;20033;-75
2022/06/12 00:25:22;;;;;;;1.90;1.50;;;17.00;63.00;;;;;;5003366;28;20057;-74
2022/06/12 00:27:47;;;;;;;2.03;1.70;;;17.00;63.00;;;;;;4991390;28;20030;-75
2022/06/12 00:30:14;;;;;;;2.00;1.80;;;16.90;63.10;;;;;;4973687;28;20199;-75
2022/06/12 00:32:40;;;;;;;1.67;1.58;;;16.90;63.30;;;;;;4959494;28;20734;-75
2022/06/12 00:35:07;;;;;;;1.58;1.40;;;16.80;63.40;;;;;;4966077;28;20055;-74
2022/06/12 00:37:33;;;;;;;2.15;1.40;;;16.80;63.40;;;;;;4998341;28;20042;-74
2022/06/12 00:39:58;;;;;;;1.48;1.38;;;16.80;63.50;;;;;;4997624;28;20124;-75
2022/06/12 00:42:28;;;;;;;2.65;1.70;;;16.70;63.60;;;;;;4987061;28;20652;-75
2022/06/12 00:44:54;;;;;;;2.28;1.88;;;16.70;63.80;;;;;;4995497;28;20073;-74
2022/06/12 00:47:20;;;;;;;2.25;1.85;;;16.70;63.90;;;;;;4993396;28;20638;-74
2022/06/12 00:50:07;;;;;;;2.03;1.65;;;16.70;64.00;;;;;;4979106;28;20497;-75
2022/06/12 00:52:38;;;;;;;3.42;1.73;;;16.60;64.20;;;;;;4974295;28;20030;-75
2022/06/12 00:55:30;;;;;;;4.35;1.73;;;16.50;64.30;;;;;;4983251;28;20045;-74
2022/06/12 00:58:03;;;;;;;1.63;1.40;;;16.50;64.40;;;;;;5008787;28;20107;-75
2022/06/12 05:05:51;;;;;;;5.47;2.90;;;14.80;72.70;;;;;;5010540;28;20051;-74
2022/06/12 05:08:17;;;;;;;3.38;3.08;;;14.90;71.60;;;;;;4995554;28;20123;-75
2022/06/12 05:10:42;;;;;;;3.08;2.85;;;15.00;72.20;;;;;;4996023;28;20093;-74
2022/06/12 05:13:11;;;;;;;3.47;2.72;;;15.00;72.50;;;;;;5017886;28;20481;-74
2022/06/12 05:15:36;;;;;;;3.45;2.90;;;15.00;72.80;;;;;;4978675;28;20066;-74
2022/06/12 05:18:29;;;;;;;4.78;2.88;;;15.10;72.90;;;;;;4986625;28;20124;-74
2022/06/12 05:20:54;;;;;;;4.22;3.55;;;15.10;72.90;;;;;;5007713;28;20253;-75
2022/06/12 05:23:20;;;;;;;3.50;3.00;;;15.20;73.00;;;;;;5026245;28;20638;-74
2022/06/12 05:25:46;;;;;;;5.72;3.10;;;15.20;73.00;;;;;;4999458;28;20041;-74
2022/06/12 05:28:14;;;;;;;2.97;2.70;;;15.30;73.50;;;;;;4992200;28;20040;-74
2022/06/12 05:30:39;;;;;;;3.53;2.83;;;15.40;73.60;;;;;;5023746;28;20077;-74
2022/06/12 05:33:05;;;;;;;3.92;3.05;;;15.40;73.80;;;;;;5032284;28;20053;-74
2022/06/12 05:35:31;;;;;;;4.20;2.88;;;15.50;73.90;;;;;;5004684;28;20037;-73
2022/06/12 05:37:58;;;;;;;5.10;2.80;;;15.50;73.70;;;;;;4992990;28;20591;-74
2022/06/12 05:40:25;;;;;;;4.53;2.90;;;15.60;74.00;;;;;;5006638;28;20545;-75
2022/06/12 05:42:51;;;;;;;3.47;2.83;;;15.70;74.00;;;;;;4990502;28;20029;-74
2022/06/12 05:45:19;;;;;;;3.00;2.63;;;15.70;74.00;;;;;;5005114;28;20037;-74
2022/06/12 05:47:50;;;;;;;4.68;2.75;;;15.80;74.40;;;;;;5007800;28;20565;-73
2022/06/12 05:50:16;;;;;;;3.00;2.53;;;15.90;74.40;;;;;;5020806;28;20053;-74
2022/06/12 05:52:41;;;;;;;9.70;3.53;;;16.00;74.20;;;;;;5012939;28;20055;-74
2022/06/12 05:55:07;;;;;;;7.20;3.55;;;16.10;74.40;;;;;;5011465;28;20052;-74
2022/06/12 05:57:33;;;;;;;5.03;3.22;;;16.20;74.40;;;;;;4997996;28;20107;-75
2022/06/12 05:59:58;;;;;;;4.90;3.17;;;16.20;74.40;;;;;;5000781;28;20030;-74
2022/06/12 06:02:24;;;;;;;5.00;3.20;;;16.30;74.30;;;;;;5000866;28;20086;-73
2022/06/12 06:04:50;;;;;;;5.25;3.10;;;16.50;74.40;;;;;;4995566;28;20045;-75
2022/06/12 06:07:15;;;;;;;4.30;2.97;;;16.50;74.40;;;;;;5030005;28;20036;-74
2022/06/12 06:09:41;;;;;;;4.07;3.67;;;16.70;74.40;;;;;;4997332;28;20064;-73
2022/06/12 06:12:07;;;;;;;5.22;3.33;;;16.80;74.30;;;;;;4999402;28;20037;-74
2022/06/12 06:14:32;;;;;;;6.25;3.40;;;16.90;74.40;;;;;;4993203;28;20037;-74
2022/06/12 06:16:58;;;;;;;5.68;3.70;;;17.00;74.20;;;;;;5033163;28;20052;-73
2022/06/12 06:19:23;;;;;;;3.97;3.53;;;17.10;74.00;;;;;;5035631;28;20147;-74
2022/06/12 06:21:49;;;;;;;4.43;3.50;;;17.20;73.90;;;;;;5022538;28;20092;-75
2022/06/12 06:24:18;;;;;;;4.80;3.25;;;17.40;73.80;;;;;;5027309;28;20148;-74
2022/06/12 06:26:44;;;;;;;4.43;3.55;;;17.50;73.80;;;;;;5013718;28;20030;-74
2022/06/12 06:29:37;;;;;;;5.43;3.58;;;17.60;74.40;;;;;;4995713;28;20493;-74
2022/06/12 06:32:04;;;;;;;6.50;3.55;;;17.80;74.00;;;;;;5006518;28;20030;-75
2022/06/12 06:34:31;;;;;;;4.25;3.55;;;17.90;73.20;;;;;;5011224;28;20691;-75
2022/06/12 06:36:56;;;;;;;4.97;3.13;;;18.10;73.10;;;;;;5009816;28;20045;-74
2022/06/12 06:39:22;;;;;;;6.38;3.30;;;18.20;72.70;;;;;;5005337;28;20537;-76
2022/06/12 06:42:40;;;;;;;5.13;3.10;;;18.40;72.50;;;;;;4987888;28;20030;-74
2022/06/12 06:47:53;;;;;;;4.95;3.22;;;18.80;71.80;;;;;;5027804;28;20044;-76
2022/06/12 06:50:19;;;;;;;4.68;3.47;;;19.00;71.60;;;;;;4973297;28;20127;-76
2022/06/12 06:52:45;;;;;;;3.97;2.85;;;19.20;71.20;;;;;;5004078;28;20495;-75
2022/06/12 06:55:13;;;;;;;6.45;3.50;;;19.30;70.90;;;;;;5009356;28;20647;-76
2022/06/12 06:57:43;;;;;;;3.50;3.03;;;19.50;70.50;;;;;;5007404;28;20041;-74
2022/06/12 07:00:10;;;;;;;3.85;3.25;;;19.70;70.30;;;;;;4988635;28;20053;-74
2022/06/12 07:02:39;;;;;;;3.10;2.85;;;19.80;69.90;;;;;;5011622;28;20124;-76
2022/06/12 07:05:10;;;;;;;4.78;3.03;;;20.00;69.60;;;;;;5004392;28;20121;-76
2022/06/12 07:07:36;;;;;;;3.95;3.22;;;20.20;69.30;;;;;;5030566;28;20524;-76
2022/06/12 07:10:03;;;;;;;5.82;3.20;;;20.40;68.90;;;;;;5033953;28;20104;-75
2022/06/12 07:12:29;;;;;;;4.13;2.63;;;20.60;68.50;;;;;;5006449;28;20059;-77
2022/06/12 07:14:54;;;;;;;4.00;2.90;;;20.70;68.20;;;;;;5012572;28;20502;-76
2022/06/12 07:24:04;;;;;;;6.03;2.63;;;21.40;66.70;;;;;;4984434;28;20033;-76
2022/06/12 07:26:38;;;;;;;4.80;3.15;;;21.70;66.30;;;;;;5014212;28;20026;-75
2022/06/12 07:29:04;;;;;;;3.83;2.70;;;21.90;65.80;;;;;;5002810;28;20582;-77
2022/06/12 07:31:30;;;;;;;7.05;3.03;;;22.10;65.40;;;;;;5013048;28;20119;-76
2022/06/12 07:33:55;;;;;;;5.28;2.85;;;22.30;65.00;;;;;;5001193;28;20032;-75
2022/06/12 07:36:21;;;;;;;4.13;2.45;;;22.50;64.60;;;;;;4999220;28;20025;-76
2022/06/12 07:38:47;;;;;;;3.30;2.40;;;22.70;64.00;;;;;;5004947;28;20022;-76
2022/06/12 07:41:13;;;;;;;4.38;2.63;;;22.90;63.60;;;;;;5006906;28;20041;-76
2022/06/12 07:43:39;;;;;;;4.18;2.70;;;23.10;63.20;;;;;;4995855;28;20030;-76
2022/06/12 07:46:06;;;;;;;3.13;2.30;;;23.30;62.70;;;;;;5030236;28;20076;-77
2022/06/12 07:48:32;;;;;;;10.18;2.72;;;23.60;62.20;;;;;;5000041;28;20030;-76
2022/06/12 07:50:58;;;;;;;6.13;2.55;;;23.80;61.70;;;;;;5029800;28;20510;-76
2022/06/12 07:53:23;;;;;;;4.82;2.40;;;24.00;61.20;;;;;;5012036;28;20030;-76
2022/06/12 07:55:50;;;;;;;3.90;2.72;;;24.20;60.70;;;;;;5004916;28;20037;-76
2022/06/12 07:58:17;;;;;;;5.53;2.60;;;24.40;60.20;;;;;;4982483;28;20571;-76
2022/06/12 08:00:42;;;;;;;6.82;2.50;;;24.60;59.80;;;;;;5023085;28;20052;-76
2022/06/12 08:03:08;;;;;;;3.33;2.15;;;24.90;59.40;;;;;;5003058;28;20041;-76
2022/06/12 08:05:33;;;;;;;4.97;2.22;;;25.10;58.90;;;;;;4996666;28;20146;-76
2022/06/12 08:07:59;;;;;;;10.85;2.83;;;25.30;58.50;;;;;;5012685;28;20057;-74
2022/06/12 08:10:25;;;;;;;4.82;2.30;;;25.50;58.10;;;;;;4998635;28;20060;-75
2022/06/12 08:12:50;;;;;;;4.75;2.03;;;25.70;58.50;;;;;;5003709;28;20167;-75
2022/06/12 08:15:20;;;;;;;5.90;2.00;;;25.90;57.40;;;;;;4993969;28;20045;-75
2022/06/12 08:17:46;;;;;;;8.35;2.17;;;26.20;57.10;;;;;;5005957;28;20124;-76
2022/06/12 08:20:24;;;;;;;2.00;1.80;;;26.40;56.70;;;;;;4989520;28;20116;-75
2022/06/12 08:22:50;;;;;;;1.67;1.58;;;26.60;56.30;;;;;;5014337;28;20120;-76
2022/06/12 08:25:15;;;;;;;2.22;1.80;;;26.80;56.00;;;;;;4983738;28;20038;-78
2022/06/12 08:27:41;;;;;;;4.88;1.80;;;27.00;55.40;;;;;;4999498;28;20045;-76
2022/06/12 08:30:07;;;;;;;2.00;1.52;;;27.20;54.70;;;;;;5015494;28;20685;-75
2022/06/12 08:32:33;;;;;;;1.73;1.38;;;27.40;54.20;;;;;;4999449;28;20037;-76
2022/06/12 08:35:02;;;;;;;3.08;2.15;;;27.60;53.80;;;;;;4994471;28;20491;-74
2022/06/12 08:37:32;;;;;;;2.80;1.70;;;27.80;53.30;;;;;;5007816;28;20052;-76
2022/06/12 08:39:58;;;;;;;2.00;1.67;;;28.00;52.70;;;;;;4998238;28;20049;-76
2022/06/12 08:42:24;;;;;;;3.08;1.60;;;28.20;52.30;;;;;;5009705;28;20366;-76
2022/06/12 08:44:51;;;;;;;2.25;1.25;;;28.40;51.80;;;;;;5028239;28;20038;-75
2022/06/12 08:47:25;;;;;;;1.83;1.48;;;28.60;51.30;;;;;;4975199;28;20037;-76
2022/06/12 08:50:09;;;;;;;1.48;1.30;;;28.90;50.70;;;;;;5023000;28;20514;-77
2022/06/12 08:52:42;;;;;;;1.52;1.30;;;29.10;49.50;;;;;;5009961;28;20128;-76
2022/06/12 08:55:22;;;;;;;1.63;1.13;;;29.30;49.90;;;;;;4985767;28;20048;-76
2022/06/12 08:57:50;;;;;;;2.58;1.40;;;29.40;49.10;;;;;;4981451;28;20045;-76
2022/06/12 09:00:24;;;;;;;1.08;0.93;;;29.60;49.00;;;;;;5017272;28;20233;-77
2022/06/12 09:02:50;;;;;;;1.00;1.00;;;29.70;48.50;;;;;;5022639;28;20061;-77
2022/06/12 09:05:26;;;;;;;3.72;1.30;;;29.80;48.10;;;;;;4997616;28;20144;-77
2022/06/12 09:08:08;;;;;;;1.45;1.00;;;29.90;46.90;;;;;;5032010;28;20509;-76
2022/06/12 09:10:45;;;;;;;2.70;1.10;;;30.20;46.30;;;;;;5000538;28;20040;-76
2022/06/12 09:13:38;;;;;;;1.52;1.02;;;30.30;46.20;;;;;;5012725;28;20044;-76
2022/06/12 09:16:30;;;;;;;2.80;0.90;;;30.60;45.20;;;;;;5005363;28;20068;-75
2022/06/12 09:19:25;;;;;;;1.58;1.08;;;30.80;45.10;;;;;;5019966;28;20775;-75
2022/06/12 09:22:04;;;;;;;1.67;1.20;;;31.00;44.20;;;;;;5003347;28;20045;-78
2022/06/12 09:25:19;;;;;;;1.40;0.93;;;31.00;44.30;;;;;;5003365;28;20038;-75
2022/06/12 09:28:06;;;;;;;1.23;0.90;;;31.00;42.90;;;;;;4969388;28;20121;-75
2022/06/12 09:30:41;;;;;;;1.90;1.00;;;30.90;43.80;;;;;;5015435;28;20030;-77
2022/06/12 09:33:18;;;;;;;1.23;0.93;;;30.90;43.70;;;;;;4997572;28;20076;-75
2022/06/12 09:36:05;;;;;;;1.17;1.08;;;31.00;42.70;;;;;;4992971;28;20049;-75
2022/06/12 09:38:59;;;;;;;1.75;0.80;;;31.20;42.30;;;;;;4992145;28;20029;-75
2022/06/12 09:41:32;;;;;;;1.52;0.80;;;31.40;42.30;;;;;;5019970;28;20052;-76
2022/06/12 09:44:12;;;;;;;2.67;1.20;;;31.60;42.50;;;;;;4986442;28;20037;-75
2022/06/12 09:46:56;;;;;;;1.75;0.70;;;31.80;41.60;;;;;;5014414;28;20067;-76
2022/06/12 09:49:46;;;;;;;2.42;1.00;;;31.90;41.60;;;;;;5005646;28;20046;-75
2022/06/12 09:52:29;;;;;;;1.42;0.80;;;32.00;40.20;;;;;;5030471;28;20068;-75
2022/06/12 09:55:10;;;;;;;0.60;0.60;;;32.10;41.40;;;;;;5015655;28;20037;-75
2022/06/12 09:57:38;;;;;;;;;;;32.20;40.70;;;;;;5007731;28;20037;-76
2022/06/12 10:00:16;;;;;;;1.05;0.77;;;32.40;41.10;;;;;;5013932;28;19913;-75
2022/06/12 10:03:03;;;;;;;1.65;1.05;;;32.50;40.80;;;;;;4975612;28;20032;-77
2022/06/12 10:05:31;;;;;;;1.17;0.88;;;32.80;40.50;;;;;;5024247;28;20037;-76
2022/06/12 10:08:16;;;;;;;1.55;1.10;;;33.00;40.10;;;;;;5023157;28;20037;-76
2022/06/12 10:11:01;;;;;;;2.67;0.80;;;33.20;38.70;;;;;;5010040;28;20037;-75
2022/06/12 10:13:34;;;;;;;1.67;0.80;;;33.30;38.00;;;;;;4998704;28;20049;-76
2022/06/12 10:16:04;;;;;;;0.95;0.75;;;33.50;38.90;;;;;;5007932;28;20088;-76
2022/06/12 10:18:35;;;;;;;2.40;1.15;;;33.70;38.70;;;;;;4988669;28;20525;-77
2022/06/12 10:21:07;;;;;;;2.35;0.93;;;33.90;38.40;;;;;;4985761;28;21137;-75
2022/06/12 10:23:33;;;;;;;1.23;1.13;;;34.00;38.00;;;;;;5018458;28;20033;-77
2022/06/12 10:25:59;;;;;;;3.03;0.80;;;34.10;38.00;;;;;;5015861;28;20034;-77
2022/06/12 10:28:28;;;;;;;2.25;0.90;;;34.20;37.80;;;;;;4988460;28;20045;-77
2022/06/12 10:31:18;;;;;;;2.63;0.98;;;34.40;37.30;;;;;;5004825;28;20070;-76
2022/06/12 10:33:56;;;;;;;3.80;0.90;;;34.50;36.20;;;;;;4985299;28;20042;-78
2022/06/12 10:36:26;;;;;;;2.03;0.95;;;34.50;36.20;;;;;;5030518;28;20063;-78
2022/06/12 10:39:06;;;;;;;0.93;0.73;;;34.60;36.60;;;;;;5015248;28;20034;-76
2022/06/12 10:41:32;;;;;;;2.53;0.80;;;34.60;36.10;;;;;;5008700;28;20049;-77
2022/06/12 10:43:57;;;;;;;3.10;1.20;;;34.70;36.60;;;;;;5000469;28;20134;-77
2022/06/12 10:46:24;;;;;;;1.42;0.93;;;34.90;36.40;;;;;;5031218;28;20033;-77
2022/06/12 10:49:14;;;;;;;3.30;0.90;;;35.00;36.00;;;;;;5005366;28;20034;-76
2022/06/12 10:51:40;;;;;;;0.93;0.90;;;35.10;35.60;;;;;;5011398;28;20033;-76
2022/06/12 10:54:18;;;;;;;1.83;1.00;;;35.30;35.90;;;;;;5012018;28;20033;-77
2022/06/12 10:56:53;;;;;;;1.33;0.80;;;35.40;34.90;;;;;;5005411;28;20041;-76
2022/06/12 10:59:38;;;;;;;3.20;0.85;;;35.50;35.20;;;;;;5012229;28;20961;-77
2022/06/12 11:02:06;;;;;;;1.15;0.75;;;35.60;34.30;;;;;;5021313;28;20156;-76
2022/06/12 11:04:44;;;;;;;3.65;1.08;;;35.70;34.90;;;;;;5014207;28;20045;-77
2022/06/12 11:07:30;;;;;;;2.00;1.05;;;35.90;34.90;;;;;;5014723;28;20045;-76
2022/06/12 11:10:14;;;;;;;2.25;1.10;;;36.00;34.20;;;;;;4980504;28;20493;-74
2022/06/12 11:12:55;;;;;;;2.15;0.98;;;36.10;33.80;;;;;;5018251;28;20029;-73
2022/06/12 11:15:30;;;;;;;2.60;0.85;;;36.30;33.80;;;;;;5013121;28;20060;-74
2022/06/12 11:18:18;;;;;;;1.15;0.93;;;36.40;33.90;;;;;;5001584;28;20037;-73
2022/06/12 11:20:57;;;;;;;1.98;1.08;;;36.60;34.10;;;;;;5029654;28;20041;-74
2022/06/12 11:23:33;;;;;;;2.97;0.90;;;36.70;34.00;;;;;;5005279;28;20041;-74
2022/06/12 11:26:36;;;;;;;4.57;1.00;;;36.80;33.50;;;;;;4986821;28;20076;-77
2022/06/12 11:29:14;;;;;;;1.20;1.00;;;36.90;32.80;;;;;;5015967;28;20046;-77
2022/06/12 11:32:06;;;;;;;1.48;0.82;;;37.00;33.00;;;;;;5004200;28;20030;-77
2022/06/12 11:34:31;;;;;;;1.25;1.10;;;37.00;32.60;;;;;;5009323;28;20041;-77
2022/06/12 11:37:03;;;;;;;5.35;1.25;;;37.10;33.40;;;;;;5018787;28;20063;-76
2022/06/12 11:39:31;;;;;;;2.83;0.98;;;37.20;33.30;;;;;;5008993;28;20029;-78
2022/06/12 11:42:13;;;;;;;5.60;1.10;;;37.30;33.30;;;;;;4980353;28;20049;-77
2022/06/12 11:45:03;;;;;;;2.53;1.25;;;37.40;32.90;;;;;;5003087;28;20202;-78
2022/06/12 11:47:38;;;;;;;1.48;0.82;;;37.40;32.20;;;;;;5004933;28;20064;-76
2022/06/12 11:50:26;;;;;;;1.73;0.85;;;37.50;32.40;;;;;;5023590;28;20133;-76
2022/06/12 11:52:57;;;;;;;2.78;1.27;;;37.70;32.10;;;;;;5012439;28;20087;-77
2022/06/12 11:55:36;;;;;;;5.00;1.40;;;37.70;32.50;;;;;;5010537;28;20048;-78
2022/06/12 11:58:40;;;;;;;2.83;1.27;;;37.80;31.50;;;;;;5005736;28;20044;-76
2022/06/12 12:01:16;;;;;;;3.28;1.10;;;37.90;31.10;;;;;;5027364;28;20102;-77
2022/06/12 12:03:54;;;;;;;4.50;1.15;;;37.80;31.50;;;;;;5000405;28;20037;-77
2022/06/12 12:06:28;;;;;;;1.27;1.17;;;37.80;31.10;;;;;;4997899;28;20558;-75
2022/06/12 12:09:18;;;;;;;1.40;1.10;;;37.80;31.50;;;;;;5024956;28;20030;-76
2022/06/12 12:11:54;;;;;;;1.17;0.90;;;37.90;31.10;;;;;;5001786;28;20033;-77
2022/06/12 12:14:27;;;;;;;1.83;1.02;;;38.00;31.30;;;;;;5014932;28;20042;-77
2022/06/12 12:17:15;;;;;;;1.55;0.93;;;38.00;31.50;;;;;;4997297;28;20085;-76
2022/06/12 12:19:55;;;;;;;2.25;0.90;;;38.00;30.80;;;;;;5004703;28;20041;-77
2022/06/12 12:22:36;;;;;;;1.20;1.08;;;37.90;31.10;;;;;;5006519;28;20128;-76
2022/06/12 12:25:04;;;;;;;1.33;0.95;;;38.00;31.40;;;;;;4991401;28;20104;-76
2022/06/12 12:27:42;;;;;;;1.55;1.10;;;38.00;31.30;;;;;;4992008;28;20033;-77
2022/06/12 12:30:15;;;;;;;1.35;1.25;;;38.00;30.80;;;;;;4995345;28;20037;-76
2022/06/12 12:32:41;;;;;;;2.22;1.10;;;38.00;30.60;;;;;;4999449;28;20040;-76
2022/06/12 12:35:06;;;;;;;2.70;0.85;;;38.10;30.80;;;;;;4993867;28;20034;-77
2022/06/12 12:43:18;;;;;;;1.50;0.82;;;37.90;30.20;;;;;;5011431;28;20048;-76
2022/06/12 12:45:43;;;;;;;1.75;1.15;;;38.00;30.90;;;;;;4997691;28;20042;-76
2022/06/12 12:48:13;;;;;;;2.72;1.20;;;38.00;30.80;;;;;;5003817;28;20037;-76
2022/06/12 12:50:50;;;;;;;3.28;1.08;;;38.00;30.60;;;;;;4993466;28;20045;-76
2022/06/12 12:53:26;;;;;;;4.13;1.00;;;38.00;30.10;;;;;;5014324;28;20066;-76
2022/06/12 12:56:05;;;;;;;1.83;0.82;;;38.10;30.40;;;;;;4986563;28;20038;-77
2022/06/12 12:58:31;;;;;;;1.58;1.00;;;38.10;30.00;;;;;;5013257;28;20108;-76
2022/06/12 13:01:19;;;;;;;1.70;1.25;;;38.20;30.80;;;;;;4993522;28;20542;-77
2022/06/12 13:03:50;;;;;;;3.45;1.40;;;38.20;29.70;;;;;;4999640;28;20115;-76
2022/06/12 13:06:53;;;;;;;5.00;1.10;;;38.20;30.00;;;;;;5009331;28;20521;-77
2022/06/12 13:09:31;;;;;;;2.80;1.15;;;38.10;29.90;;;;;;5007500;28;20493;-76
2022/06/12 13:12:23;;;;;;;1.88;1.00;;;38.10;30.00;;;;;;4989412;28;20071;-76
2022/06/12 13:15:12;;;;;;;1.73;1.30;;;38.10;29.60;;;;;;4988656;28;20088;-77
2022/06/12 13:17:50;;;;;;;1.50;1.25;;;38.00;30.00;;;;;;4995758;28;20064;-78
2022/06/12 13:20:52;;;;;;;1.10;0.95;;;38.00;29.80;;;;;;5020310;28;20172;-77
2022/06/12 13:23:44;;;;;;;2.20;1.00;;;38.00;29.60;;;;;;5003471;28;20042;-77
2022/06/12 13:26:13;;;;;;;1.35;1.00;;;38.00;29.90;;;;;;5023819;28;20045;-78
2022/06/12 13:28:39;;;;;;;4.63;1.00;;;38.10;30.00;;;;;;5005305;28;20457;-76
2022/06/12 13:31:05;;;;;;;1.40;0.98;;;38.00;29.80;;;;;;4979970;28;20041;-78
2022/06/12 13:33:35;;;;;;;1.08;0.73;;;38.00;29.80;;;;;;5003829;28;20163;-77
2022/06/12 13:36:02;;;;;;;3.00;0.80;;;38.10;29.70;;;;;;4970533;28;22659;-77
2022/06/12 13:38:34;;;;;;;1.00;0.60;;;38.20;29.80;;;;;;5007468;28;20071;-78
2022/06/12 13:41:08;;;;;;;1.35;0.80;;;38.30;29.40;;;;;;5016929;28;20040;-77
2022/06/12 13:43:36;;;;;;;1.33;0.70;;;38.30;28.90;;;;;;5008910;28;20418;-78
2022/06/12 13:46:05;;;;;;;1.60;0.88;;;38.30;29.00;;;;;;4998840;28;20591;-76
2022/06/12 13:48:35;;;;;;;2.08;0.70;;;38.30;28.90;;;;;;4999394;28;20048;-77
2022/06/12 13:51:22;;;;;;;1.00;0.90;;;38.30;28.70;;;;;;5009272;28;20041;-78
2022/06/12 13:53:48;;;;;;;2.38;0.80;;;38.20;28.60;;;;;;5003304;28;20038;-76
2022/06/12 13:56:16;;;;;;;2.10;0.88;;;38.20;28.60;;;;;;5016874;28;20040;-77
2022/06/12 13:58:48;;;;;;;1.75;0.70;;;38.20;28.40;;;;;;5032341;28;20041;-77
2022/06/12 14:01:20;;;;;;;2.28;0.88;;;38.20;28.30;;;;;;4991846;28;20040;-76
2022/06/12 14:04:03;;;;;;;1.40;0.85;;;38.30;28.10;;;;;;4982585;28;20044;-76
2022/06/12 14:06:36;;;;;;;2.05;0.85;;;38.30;27.80;;;;;;4974162;28;20045;-76
2022/06/12 14:09:18;;;;;;;1.48;0.80;;;38.30;27.80;;;;;;5029864;28;20037;-76
2022/06/12 14:11:43;;;;;;;1.95;0.70;;;38.30;27.70;;;;;;5007219;28;20029;-77
2022/06/12 14:14:29;;;;;;;1.25;0.68;;;38.40;27.80;;;;;;5005159;28;20044;-76
2022/06/12 14:16:54;;;;;;;2.30;0.70;;;38.30;26.90;;;;;;5018129;28;20415;-76
2022/06/12 14:19:27;;;;;;;2.22;0.90;;;38.30;27.40;;;;;;5010776;28;20560;-77
2022/06/12 14:22:16;;;;;;;1.40;0.80;;;38.30;27.10;;;;;;5013545;28;20044;-76
2022/06/12 14:24:42;;;;;;;2.83;0.90;;;38.30;27.00;;;;;;4989615;28;20037;-76
2022/06/12 14:27:24;;;;;;;4.03;0.70;;;38.30;27.30;;;;;;4994029;28;20033;-76
2022/06/12 14:29:50;;;;;;;1.00;0.60;;;38.30;26.80;;;;;;4992662;28;20048;-77
2022/06/12 14:32:24;;;;;;;2.65;0.85;;;38.40;27.30;;;;;;4995963;28;20526;-76
2022/06/12 14:35:01;;;;;;;0.80;0.70;;;38.50;26.90;;;;;;5006265;28;20041;-76
2022/06/12 14:37:30;;;;;;;2.53;0.80;;;38.50;26.80;;;;;;5010257;28;20068;-77
2022/06/12 14:39:56;;;;;;;1.63;0.80;;;38.50;27.20;;;;;;5012479;28;20043;-76
2022/06/12 14:42:22;;;;;;;2.65;0.90;;;38.50;27.10;;;;;;4997502;28;20034;-77
2022/06/12 14:44:48;;;;;;;1.42;0.90;;;38.50;27.10;;;;;;5007185;28;20095;-77
2022/06/12 14:47:25;;;;;;;1.88;0.80;;;38.50;27.10;;;;;;5001825;28;20033;-76
2022/06/12 14:49:51;;;;;;;3.38;1.00;;;38.60;27.20;;;;;;4979470;28;20033;-78
2022/06/12 14:52:22;;;;;;;2.55;0.90;;;38.70;27.30;;;;;;4984678;28;20524;-76
2022/06/12 14:54:49;;;;;;;3.28;1.10;;;38.70;27.20;;;;;;4978008;28;20730;-76
2022/06/12 14:57:14;;;;;;;1.65;1.00;;;38.70;27.10;;;;;;4999757;28;20037;-76
2022/06/12 14:59:40;;;;;;;2.20;0.93;;;38.70;27.10;;;;;;4998314;28;20029;-75
2022/06/12 15:02:17;;;;;;;1.70;0.80;;;38.80;27.10;;;;;;5006375;28;20026;-78
2022/06/12 15:04:42;;;;;;;2.95;0.88;;;38.80;26.70;;;;;;4990584;28;20037;-76
2022/06/12 15:07:08;;;;;;;1.15;0.75;;;38.80;27.00;;;;;;5015551;28;20071;-77
2022/06/12 15:09:33;;;;;;;1.70;1.02;;;38.70;27.00;;;;;;4990554;28;20063;-77
2022/06/12 15:11:59;;;;;;;1.40;0.80;;;38.70;26.90;;;;;;5013476;28;20038;-75
2022/06/12 15:14:24;;;;;;;1.63;1.08;;;38.70;26.90;;;;;;5011999;28;20022;-76
2022/06/12 15:16:50;;;;;;;1.75;0.98;;;38.70;27.00;;;;;;5012508;28;20029;-76
2022/06/12 15:19:15;;;;;;;2.88;0.80;;;38.70;27.00;;;;;;5010549;28;20038;-77
2022/06/12 15:21:42;;;;;;;1.20;0.85;;;38.70;26.90;;;;;;4996961;28;20033;-76
2022/06/12 15:24:15;;;;;;;2.42;1.15;;;38.60;26.80;;;;;;4983080;28;20040;-77
2022/06/12 15:32:14;;;;;;;1.13;0.80;;;38.40;26.80;;;;;;4999828;28;20108;-76
2022/06/12 15:34:40;;;;;;;1.45;0.80;;;38.30;26.60;;;;;;4996060;28;20667;-76
2022/06/12 15:37:05;;;;;;;1.55;1.00;;;38.20;26.70;;;;;;5015206;28;20081;-76
2022/06/12 15:39:31;;;;;;;2.25;0.80;;;38.20;26.80;;;;;;5000557;28;20125;-76
2022/06/12 15:41:56;;;;;;;1.60;1.08;;;38.10;26.80;;;;;;5010867;28;20065;-76
2022/06/12 15:44:22;;;;;;;2.53;1.25;;;38.00;26.90;;;;;;4995794;28;20037;-76
2022/06/12 15:46:47;;;;;;;2.05;0.85;;;37.90;26.90;;;;;;5015883;28;20025;-76
2022/06/12 15:49:16;;;;;;;1.48;0.95;;;37.80;27.00;;;;;;4992550;28;20060;-76
2022/06/12 15:51:51;;;;;;;1.48;0.90;;;37.60;27.00;;;;;;5004969;28;20028;-76
2022/06/12 15:54:18;;;;;;;2.17;1.00;;;37.50;27.00;;;;;;4979280;28;20530;-76
2022/06/12 15:56:48;;;;;;;2.17;1.00;;;37.40;27.20;;;;;;5004079;28;20091;-75
2022/06/12 15:59:14;;;;;;;1.55;1.00;;;37.20;27.10;;;;;;4995313;28;20041;-76
2022/06/12 16:01:39;;;;;;;1.83;1.00;;;37.10;27.30;;;;;;4999259;28;20454;-77
2022/06/12 16:04:05;;;;;;;1.63;1.02;;;36.90;27.30;;;;;;4996826;28;20589;-76
2022/06/12 16:06:31;;;;;;;1.45;0.82;;;36.90;27.80;;;;;;4987534;28;20125;-76
2022/06/12 16:08:57;;;;;;;2.67;0.88;;;36.80;27.50;;;;;;5009279;28;20044;-76
2022/06/12 16:11:22;;;;;;;1.42;0.90;;;36.70;27.60;;;;;;5004003;28;21033;-76
2022/06/12 16:13:48;;;;;;;2.92;1.33;;;36.60;27.70;;;;;;4980326;28;20486;-76
2022/06/12 16:16:18;;;;;;;3.08;0.90;;;36.60;27.80;;;;;;5001647;28;20093;-76
2022/06/12 16:18:44;;;;;;;;;;;36.50;27.80;;;;;;5009763;28;20037;-76
2022/06/12 16:21:09;;;;;;;4.10;1.00;;;36.40;28.00;;;;;;4996634;28;19921;-77
2022/06/12 16:23:36;;;;;;;1.65;0.90;;;36.40;28.10;;;;;;4995917;28;20037;-76
2022/06/12 16:26:02;;;;;;;1.83;0.82;;;36.30;28.10;;;;;;5012546;28;20098;-77
2022/06/12 16:28:27;;;;;;;1.55;0.82;;;36.20;28.20;;;;;;4998360;28;20190;-76
2022/06/12 16:30:54;;;;;;;3.75;1.00;;;36.10;28.20;;;;;;5010874;28;20734;-75
2022/06/12 16:33:21;;;;;;;1.88;0.90;;;36.00;28.20;;;;;;5001816;28;20176;-76
2022/06/12 16:35:46;;;;;;;2.20;0.95;;;36.00;28.30;;;;;;5005094;28;20142;-75
2022/06/12 16:38:13;;;;;;;1.65;1.08;;;35.90;28.30;;;;;;4993381;28;20556;-76
2022/06/12 16:40:38;;;;;;;3.40;2.10;;;35.80;28.40;;;;;;5006696;28;20129;-76
2022/06/12 16:43:04;;;;;;;4.30;2.65;;;35.70;28.40;;;;;;5025417;28;20128;-76
2022/06/12 16:45:30;;;;;;;1.73;1.58;;;35.60;28.50;;;;;;5013892;28;20673;-76
2022/06/12 16:47:56;;;;;;;2.35;1.55;;;35.60;28.60;;;;;;5020468;28;20638;-75
2022/06/12 16:50:22;;;;;;;1.73;1.00;;;35.50;28.70;;;;;;4979709;28;20048;-76
2022/06/12 16:52:47;;;;;;;3.38;1.00;;;35.40;28.70;;;;;;4985264;28;20033;-76
2022/06/12 16:55:13;;;;;;;1.33;1.05;;;35.30;28.80;;;;;;5004136;28;20033;-76
2022/06/12 16:57:38;;;;;;;2.53;1.45;;;35.20;28.90;;;;;;5003179;28;20055;-76
2022/06/12 17:00:05;;;;;;;2.03;0.93;;;35.10;29.00;;;;;;5009494;28;20546;-75
2022/06/12 17:02:31;;;;;;;1.08;0.90;;;35.00;29.10;;;;;;4990367;28;20033;-76
2022/06/12 17:04:58;;;;;;;1.92;1.00;;;34.90;29.20;;;;;;4989184;28;20658;-75
2022/06/12 17:07:26;;;;;;;2.25;0.90;;;34.80;29.30;;;;;;5011918;28;20642;-76
2022/06/12 17:09:52;;;;;;;1.05;0.80;;;34.70;29.40;;;;;;4999475;28;20125;-75
2022/06/12 17:12:18;;;;;;;2.72;1.25;;;34.60;29.50;;;;;;4995251;28;20037;-76
2022/06/12 17:14:44;;;;;;;2.20;0.80;;;34.50;29.60;;;;;;5013006;28;20091;-76
2022/06/12 17:17:10;;;;;;;2.55;1.00;;;34.30;29.70;;;;;;4996143;28;20041;-76
2022/06/12 17:22:24;;;;;;;2.08;1.20;;;34.10;29.90;;;;;;5011697;28;20047;-75
2022/06/12 17:24:50;;;;;;;0.90;0.70;;;33.90;30.00;;;;;;5022602;28;20068;-76
2022/06/12 17:27:16;;;;;;;4.07;0.98;;;33.70;30.00;;;;;;5015138;28;20053;-77
2022/06/12 17:29:41;;;;;;;2.08;1.10;;;33.60;30.20;;;;;;5029861;28;20068;-76
2022/06/12 17:32:07;;;;;;;2.20;0.82;;;33.50;30.40;;;;;;5008614;28;20037;-75
2022/06/12 17:34:33;;;;;;;2.40;0.80;;;33.40;30.60;;;;;;5000621;28;20033;-76
2022/06/12 17:36:58;;;;;;;2.33;1.08;;;33.20;30.90;;;;;;5001186;28;20037;-75
2022/06/12 17:39:24;;;;;;;1.85;0.95;;;33.10;31.10;;;;;;5017663;28;20107;-76